createdAt,value
2023-03-06T00:00:41.099Z,8.97
2023-03-06T00:03:42.741Z,8.00
2023-03-06T00:06:44.447Z,7.90
2023-03-06T00:09:46.079Z,7.70
2023-03-06T00:12:47.772Z,8.50
2023-03-06T00:15:49.999Z,8.00
2023-03-06T00:18:51.996Z,8.80
2023-03-06T00:21:54.590Z,9.10
2023-03-06T00:24:56.202Z,8.80
2023-03-06T00:27:57.848Z,8.50
2023-03-06T00:31:00.492Z,8.67
2023-03-06T00:34:02.849Z,8.50
2023-03-06T00:37:04.460Z,8.53
2023-03-06T00:40:07.456Z,9.03
2023-03-06T00:43:09.286Z,9.13
2023-03-06T00:46:11.035Z,8.00
2023-03-06T00:49:12.736Z,8.00
2023-03-06T00:52:14.355Z,8.67
2023-03-06T00:55:16.112Z,8.90
2023-03-06T00:58:18.009Z,6.50
2023-03-06T01:01:19.834Z,8.20
2023-03-06T01:04:21.594Z,8.27
2023-03-06T01:07:23.320Z,8.23
2023-03-06T01:10:24.874Z,7.80
2023-03-06T01:13:26.580Z,7.80
2023-03-06T01:16:28.616Z,8.77
2023-03-06T01:19:30.263Z,7.93
2023-03-06T01:22:31.950Z,8.03
2023-03-06T01:25:33.582Z,7.90
2023-03-06T01:28:37.375Z,8.30
2023-03-06T01:31:39.030Z,8.47
2023-03-06T01:34:40.733Z,8.40
2023-03-06T01:37:42.457Z,8.40
2023-03-06T01:40:44.135Z,8.77
2023-03-06T01:43:47.121Z,7.90
2023-03-06T01:46:48.744Z,8.10
2023-03-06T01:49:50.625Z,8.27
2023-03-06T01:52:58.782Z,8.40
2023-03-06T01:56:00.500Z,8.63
2023-03-06T01:59:02.888Z,9.03
2023-03-06T02:02:08.013Z,8.77
2023-03-06T02:05:09.953Z,8.93
2023-03-06T02:08:14.693Z,8.60
2023-03-06T02:11:22.316Z,8.27
2023-03-06T02:14:24.360Z,9.63
2023-03-06T02:17:26.818Z,10.17
2023-03-06T02:20:38.009Z,9.67
2023-03-06T02:24:15.471Z,9.67
2023-03-06T02:27:17.857Z,10.17
2023-03-06T02:30:19.633Z,9.57
2023-03-06T02:33:27.887Z,9.07
2023-03-06T02:36:30.715Z,10.20
2023-03-06T02:39:35.773Z,9.50
2023-03-06T02:42:37.482Z,9.70
2023-03-06T02:45:45.066Z,9.13
2023-03-06T02:48:46.796Z,9.27
2023-03-06T02:51:48.397Z,9.77
2023-03-06T02:54:50.069Z,9.90
2023-03-06T02:57:51.816Z,9.27
2023-03-06T03:00:53.377Z,9.50
2023-03-06T03:03:54.958Z,8.70
2023-03-06T03:06:56.630Z,9.10
2023-03-06T03:09:58.276Z,8.80
2023-03-06T03:12:59.969Z,9.07
2023-03-06T03:16:04.362Z,8.90
2023-03-06T03:19:06.000Z,8.67
2023-03-06T03:22:07.829Z,8.50
2023-03-06T03:25:09.843Z,9.27
2023-03-06T03:28:11.407Z,8.00
2023-03-06T03:31:14.044Z,8.60
2023-03-06T03:34:16.162Z,9.53
2023-03-06T03:37:18.465Z,8.77
2023-03-06T03:40:20.493Z,8.00
2023-03-06T03:43:22.180Z,7.93
2023-03-06T03:46:23.986Z,8.70
2023-03-06T03:49:25.696Z,9.23
2023-03-06T03:52:27.359Z,7.87
2023-03-06T03:55:29.383Z,9.70
2023-03-06T03:58:31.204Z,8.73
2023-03-06T04:01:32.893Z,8.10
2023-03-06T04:04:34.584Z,8.47
2023-03-06T04:07:36.202Z,9.63
2023-03-06T04:10:39.348Z,8.70
2023-03-06T04:13:40.965Z,8.53
2023-03-06T04:16:42.548Z,8.20
2023-03-06T04:19:44.136Z,9.97
2023-03-06T04:22:45.722Z,10.00
2023-03-06T04:25:47.284Z,8.70
2023-03-06T04:28:48.896Z,9.13
2023-03-06T04:31:50.538Z,8.83
2023-03-06T04:34:52.149Z,8.97
2023-03-06T04:37:53.742Z,9.63
2023-03-06T04:40:55.498Z,9.60
2023-03-06T04:43:57.387Z,9.63
2023-03-06T04:46:58.947Z,9.77
2023-03-06T04:50:00.580Z,9.53
2023-03-06T04:53:03.451Z,9.60
2023-03-06T04:56:05.783Z,8.83
2023-03-06T04:59:07.625Z,9.30
2023-03-06T05:02:09.276Z,9.20
2023-03-06T05:05:12.019Z,9.20
2023-03-06T05:08:15.332Z,8.97
2023-03-06T05:11:16.948Z,10.53
2023-03-06T05:14:18.548Z,9.07
2023-03-06T05:17:20.189Z,9.53
2023-03-06T05:20:21.771Z,10.47
2023-03-06T05:23:23.398Z,10.50
2023-03-06T05:26:25.077Z,9.50
2023-03-06T05:29:26.669Z,8.73
2023-03-06T05:32:28.823Z,9.93
2023-03-06T05:35:30.591Z,9.13
2023-03-06T05:38:32.664Z,10.03
2023-03-06T05:41:34.355Z,9.50
2023-03-06T05:44:36.573Z,10.10
2023-03-06T05:47:38.450Z,9.10
2023-03-06T05:50:40.345Z,9.43
2023-03-06T05:53:42.013Z,10.63
2023-03-06T05:56:43.613Z,9.97
2023-03-06T05:59:46.392Z,9.70
2023-03-06T06:02:48.141Z,9.50
2023-03-06T06:05:50.087Z,8.00
2023-03-06T06:08:51.658Z,8.27
2023-03-06T06:11:59.552Z,8.33
2023-03-06T06:15:01.310Z,8.53
2023-03-06T06:18:02.935Z,8.10
2023-03-06T06:21:06.260Z,8.07
2023-03-06T06:24:07.951Z,8.00
2023-03-06T06:27:09.862Z,8.30
2023-03-06T06:30:12.182Z,8.40
2023-03-06T06:33:13.801Z,8.60
2023-03-06T06:36:19.793Z,8.37
2023-03-06T06:39:23.016Z,9.73
2023-03-06T06:42:39.035Z,8.77
2023-03-06T06:45:44.034Z,9.53
2023-03-06T06:48:49.283Z,8.30
2023-03-06T06:51:50.896Z,9.30
2023-03-06T06:54:53.049Z,7.83
2023-03-06T06:57:54.663Z,9.40
2023-03-06T07:00:56.239Z,9.17
2023-03-06T07:03:57.932Z,8.40
2023-03-06T07:06:59.878Z,8.27
2023-03-06T07:10:01.622Z,10.80
2023-03-06T07:13:03.211Z,11.17
2023-03-06T07:16:05.284Z,10.23
2023-03-06T07:19:08.006Z,9.87
2023-03-06T07:22:09.808Z,9.80
2023-03-06T07:25:11.536Z,9.23
2023-03-06T07:28:13.379Z,9.07
2023-03-06T07:31:15.199Z,9.70
2023-03-06T07:34:16.796Z,9.70
2023-03-06T07:37:18.529Z,9.17
2023-03-06T07:40:20.785Z,9.10
2023-03-06T07:43:22.398Z,9.40
2023-03-06T07:46:24.068Z,9.20
2023-03-06T07:49:25.705Z,9.27
2023-03-06T07:52:27.268Z,8.87
2023-03-06T07:55:28.852Z,9.53
2023-03-06T07:58:30.447Z,9.40
2023-03-06T08:01:32.115Z,8.60
2023-03-06T08:04:34.282Z,10.23
2023-03-06T08:07:35.958Z,9.03
2023-03-06T08:10:38.762Z,9.80
2023-03-06T08:13:40.522Z,9.20
2023-03-06T08:16:42.365Z,9.60
2023-03-06T08:19:43.960Z,9.17
2023-03-06T08:22:45.642Z,8.83
2023-03-06T08:25:56.042Z,9.87
2023-03-06T08:28:59.666Z,9.13
2023-03-06T08:32:01.516Z,9.73
2023-03-06T08:35:06.580Z,9.97
2023-03-06T08:38:08.165Z,9.00
2023-03-06T08:41:09.768Z,10.07
2023-03-06T08:44:12.106Z,8.40
2023-03-06T08:47:13.909Z,9.97
2023-03-06T08:50:15.607Z,10.40
2023-03-06T08:53:17.602Z,9.50
2023-03-06T08:56:28.058Z,9.03
2023-03-06T08:59:29.625Z,9.00
2023-03-06T09:02:31.976Z,8.90
2023-03-06T09:05:33.852Z,9.10
2023-03-06T09:08:35.538Z,9.17
2023-03-06T09:11:37.671Z,8.97
2023-03-06T09:14:39.262Z,8.70
2023-03-06T09:17:40.944Z,9.53
2023-03-06T09:20:42.620Z,9.67
2023-03-06T09:23:44.597Z,9.30
2023-03-06T09:26:47.958Z,9.20
2023-03-06T09:29:50.470Z,9.27
2023-03-06T09:32:52.018Z,8.70
2023-03-06T09:35:56.352Z,8.87
2023-03-06T09:38:58.002Z,9.90
2023-03-06T09:41:59.913Z,9.70
2023-03-06T09:45:02.643Z,8.87
2023-03-06T09:48:16.698Z,9.20
2023-03-06T09:51:24.524Z,10.10
2023-03-06T09:54:47.564Z,9.90
2023-03-06T09:58:24.247Z,9.07
2023-03-06T10:01:34.966Z,9.70
2023-03-06T10:04:43.692Z,10.07
2023-03-06T10:08:00.479Z,9.30
2023-03-06T10:11:05.459Z,9.90
2023-03-06T10:14:39.629Z,9.47
2023-03-06T10:17:43.063Z,9.77
2023-03-06T10:21:02.546Z,9.30
2023-03-06T10:24:29.901Z,7.10
2023-03-06T10:28:10.266Z,8.80
2023-03-06T10:31:28.587Z,8.00
2023-03-06T10:34:36.263Z,9.47
2023-03-06T10:37:37.883Z,9.73
2023-03-06T10:41:05.373Z,9.43
2023-03-06T10:44:07.822Z,8.80
2023-03-06T10:47:31.181Z,9.13
2023-03-06T10:50:34.370Z,8.30
2023-03-06T10:53:36.033Z,10.10
2023-03-06T10:56:40.076Z,8.50
2023-03-06T10:59:52.425Z,9.40
2023-03-06T11:03:21.239Z,9.50
2023-03-06T11:06:34.957Z,8.90
2023-03-06T11:09:36.906Z,10.43
2023-03-06T11:12:41.145Z,9.83
2023-03-06T11:15:57.019Z,9.97
2023-03-06T11:19:05.433Z,9.83
2023-03-06T11:22:17.903Z,10.47
2023-03-06T11:25:22.517Z,9.63
2023-03-06T11:28:29.764Z,10.30
2023-03-06T11:31:35.074Z,9.07
2023-03-06T11:34:39.305Z,9.00
2023-03-06T11:37:58.252Z,9.23
2023-03-06T11:41:05.407Z,9.83
2023-03-06T11:44:20.975Z,9.30
2023-03-06T11:47:32.661Z,10.20
2023-03-06T11:50:44.902Z,10.03
2023-03-06T11:53:49.297Z,9.63
2023-03-06T11:57:02.332Z,9.93
2023-03-06T12:00:27.479Z,10.07
2023-03-06T12:04:24.322Z,9.73
2023-03-06T12:07:32.570Z,10.53
2023-03-06T12:10:52.030Z,10.80
2023-03-06T12:14:41.445Z,10.17
2023-03-06T12:17:58.669Z,10.40
2023-03-06T12:21:22.573Z,10.20
2023-03-06T12:24:58.283Z,9.77
2023-03-06T12:28:26.040Z,10.80
2023-03-06T12:31:49.776Z,9.83
2023-03-06T12:35:16.892Z,9.80
2023-03-06T12:38:40.551Z,9.93
2023-03-06T12:42:00.224Z,10.20
2023-03-06T12:45:28.492Z,9.77
2023-03-06T12:48:35.553Z,11.00
2023-03-06T12:51:39.833Z,8.27
2023-03-06T12:54:42.200Z,8.87
2023-03-06T12:57:43.990Z,9.17
2023-03-06T13:01:09.523Z,9.47
2023-03-06T13:04:35.277Z,10.53
2023-03-06T13:08:10.562Z,8.50
2023-03-06T13:11:30.161Z,8.60
2023-03-06T13:14:58.394Z,8.97
2023-03-06T13:18:00.596Z,10.00
2023-03-06T13:21:04.346Z,8.60
2023-03-06T13:24:14.254Z,8.00
2023-03-06T13:27:46.900Z,8.63
2023-03-06T13:30:48.567Z,8.70
2023-03-06T13:33:56.454Z,9.37
2023-03-06T13:37:16.752Z,9.37
2023-03-06T13:40:33.315Z,8.87
2023-03-06T13:43:43.498Z,10.10
2023-03-06T13:46:59.627Z,9.10
2023-03-06T13:50:17.847Z,9.97
2023-03-06T13:53:45.902Z,9.57
2023-03-06T13:57:05.583Z,8.67
2023-03-06T14:00:31.806Z,9.17
2023-03-06T14:04:00.441Z,10.33
2023-03-06T14:07:06.257Z,9.00
2023-03-06T14:10:08.096Z,9.17
2023-03-06T14:13:17.497Z,8.40
2023-03-06T14:16:48.645Z,7.10
2023-03-06T14:19:51.386Z,8.50
2023-03-06T14:22:53.512Z,8.90
2023-03-06T14:26:01.062Z,8.83
2023-03-06T14:29:03.354Z,9.63
2023-03-06T14:32:10.710Z,9.13
2023-03-06T14:35:30.951Z,9.10
2023-03-06T14:38:42.489Z,9.10
2023-03-06T14:41:44.050Z,8.70
2023-03-06T14:44:59.476Z,9.87
2023-03-06T14:48:01.394Z,9.37
2023-03-06T14:51:03.056Z,9.67
2023-03-06T14:54:04.995Z,8.47
2023-03-06T14:57:12.995Z,8.13
2023-03-06T15:00:19.298Z,8.73
2023-03-06T15:03:27.749Z,9.07
2023-03-06T15:06:41.819Z,9.87
2023-03-06T15:09:50.107Z,9.73
2023-03-06T15:12:51.872Z,10.30
2023-03-06T15:16:04.392Z,10.67
2023-03-06T15:19:16.977Z,12.20
2023-03-06T15:22:40.122Z,10.40
2023-03-06T15:25:50.426Z,10.10
2023-03-06T15:29:03.405Z,9.57
2023-03-06T15:32:34.585Z,9.03
2023-03-06T15:35:38.206Z,8.27
2023-03-06T15:38:42.867Z,9.00
2023-03-06T15:41:44.916Z,8.40
2023-03-06T15:44:52.828Z,8.70
2023-03-06T15:47:55.895Z,8.30
2023-03-06T15:50:57.842Z,7.90
2023-03-06T15:54:11.255Z,7.90
2023-03-06T15:57:26.540Z,7.37
2023-03-06T16:00:33.970Z,7.57
2023-03-06T16:03:35.590Z,7.27
2023-03-06T16:06:37.672Z,7.20
2023-03-06T16:09:41.166Z,6.70
2023-03-06T16:12:47.438Z,6.87
2023-03-06T16:15:50.234Z,6.90
2023-03-06T16:18:51.859Z,7.00
2023-03-06T16:21:55.118Z,7.13
2023-03-06T16:24:56.654Z,6.47
2023-03-06T16:27:58.536Z,7.93
2023-03-06T16:31:00.178Z,6.97
2023-03-06T16:34:01.808Z,6.50
2023-03-06T16:37:03.808Z,6.57
2023-03-06T16:40:14.938Z,7.10
2023-03-06T16:43:16.649Z,7.07
2023-03-06T16:46:21.863Z,7.20
2023-03-06T16:49:24.899Z,6.43
2023-03-06T16:52:26.554Z,6.97
2023-03-06T16:55:28.354Z,7.40
2023-03-06T16:58:29.966Z,8.07
2023-03-06T17:01:31.618Z,7.57
2023-03-06T17:04:33.362Z,8.23
2023-03-06T17:07:36.347Z,8.00
2023-03-06T17:10:41.045Z,9.17
2023-03-06T17:13:42.686Z,9.03
2023-03-06T17:16:45.535Z,9.83
2023-03-06T17:19:50.934Z,10.67
2023-03-06T17:22:52.567Z,11.63
2023-03-06T17:26:15.831Z,11.93
2023-03-06T17:29:17.780Z,10.87
2023-03-06T17:32:19.359Z,12.03
2023-03-06T17:35:20.965Z,12.27
2023-03-06T17:38:22.533Z,12.40
2023-03-06T17:41:24.906Z,11.40
2023-03-06T17:44:26.537Z,11.77
2023-03-06T17:47:28.158Z,11.27
2023-03-06T17:50:29.824Z,11.33
2023-03-06T17:53:32.239Z,10.73
2023-03-06T17:56:33.851Z,11.20
2023-03-06T17:59:35.609Z,10.43
2023-03-06T18:02:37.264Z,9.43
2023-03-06T18:05:39.058Z,9.23
2023-03-06T18:08:41.007Z,10.40
2023-03-06T18:11:42.785Z,11.20
2023-03-06T18:14:44.474Z,12.20
2023-03-06T18:17:46.316Z,13.37
2023-03-06T18:20:48.108Z,11.13
2023-03-06T18:23:50.028Z,10.20
2023-03-06T18:26:51.628Z,12.10
2023-03-06T18:29:55.399Z,12.10
2023-03-06T18:32:57.094Z,10.67
2023-03-06T18:36:02.614Z,10.33
2023-03-06T18:39:08.548Z,10.87
2023-03-06T18:42:10.172Z,11.63
2023-03-06T18:45:13.778Z,10.97
2023-03-06T18:48:17.692Z,10.47
2023-03-06T18:51:20.104Z,11.50
2023-03-06T18:54:22.465Z,10.10
2023-03-06T18:57:24.017Z,10.43
2023-03-06T19:00:25.729Z,10.87
2023-03-06T19:03:27.564Z,11.67
2023-03-06T19:06:29.784Z,11.13
2023-03-06T19:09:31.447Z,11.10
2023-03-06T19:12:33.725Z,10.33
2023-03-06T19:15:41.151Z,10.10
2023-03-06T19:18:42.762Z,10.67
2023-03-06T19:21:44.391Z,11.10
2023-03-06T19:24:47.991Z,12.30
2023-03-06T19:27:49.599Z,11.70
2023-03-06T19:30:51.993Z,9.93
2023-03-06T19:33:56.823Z,9.60
2023-03-06T19:36:58.520Z,12.70
2023-03-06T19:40:02.521Z,11.93
2023-03-06T19:43:04.456Z,12.57
2023-03-06T19:46:06.403Z,13.10
2023-03-06T19:49:12.040Z,14.07
2023-03-06T19:52:13.794Z,12.60
2023-03-06T19:55:15.582Z,14.53
2023-03-06T19:58:17.184Z,14.30
2023-03-06T20:01:20.891Z,14.30
2023-03-06T20:04:23.848Z,13.80
2023-03-06T20:07:25.586Z,13.50
2023-03-06T20:10:27.230Z,11.83
2023-03-06T20:13:28.953Z,12.77
2023-03-06T20:16:31.558Z,13.13
2023-03-06T20:19:33.601Z,12.67
2023-03-06T20:22:35.461Z,13.70
2023-03-06T20:25:37.248Z,13.17
2023-03-06T20:28:40.284Z,13.00
2023-03-06T20:31:41.922Z,12.47
2023-03-06T20:34:44.435Z,13.57
2023-03-06T20:37:46.083Z,12.63
2023-03-06T20:40:48.015Z,13.00
2023-03-06T20:43:49.930Z,14.17
2023-03-06T20:46:52.027Z,13.50
2023-03-06T20:49:53.723Z,13.03
2023-03-06T20:52:56.662Z,12.03
2023-03-06T20:55:58.628Z,12.87
2023-03-06T20:59:00.585Z,14.43
2023-03-06T21:02:02.680Z,14.57
2023-03-06T21:05:04.492Z,13.90
2023-03-06T21:08:07.102Z,14.27
2023-03-06T21:11:08.885Z,15.03
2023-03-06T21:14:12.228Z,13.63
2023-03-06T21:17:14.029Z,14.00
2023-03-06T21:20:15.866Z,14.47
2023-03-06T21:23:17.536Z,14.70
2023-03-06T21:26:21.834Z,14.03
2023-03-06T21:29:23.374Z,14.57
2023-03-06T21:32:25.533Z,15.13
2023-03-06T21:35:27.172Z,13.30
2023-03-06T21:38:28.799Z,14.67
2023-03-06T21:41:32.216Z,16.83
2023-03-06T21:44:33.810Z,16.00
2023-03-06T21:47:39.297Z,14.87
2023-03-06T21:50:41.809Z,14.23
2023-03-06T21:53:44.628Z,14.80
2023-03-06T21:56:46.296Z,13.03
2023-03-06T21:59:48.064Z,14.10
2023-03-06T22:02:50.396Z,14.17
2023-03-06T22:05:52.748Z,13.33
2023-03-06T22:08:56.819Z,14.90
2023-03-06T22:11:58.673Z,15.60
2023-03-06T22:15:00.559Z,16.30
2023-03-06T22:18:03.451Z,15.10
2023-03-06T22:21:10.115Z,16.27
2023-03-06T22:24:11.696Z,14.07
2023-03-06T22:27:13.285Z,16.33
2023-03-06T22:30:15.071Z,16.00
2023-03-06T22:33:16.643Z,16.87
2023-03-06T22:36:19.516Z,15.60
2023-03-06T22:39:21.079Z,14.50
2023-03-06T22:42:22.689Z,15.60
2023-03-06T22:45:24.458Z,15.97
2023-03-06T22:48:26.329Z,17.20
2023-03-06T22:51:28.779Z,16.13
2023-03-06T22:54:30.508Z,15.23
2023-03-06T22:57:32.268Z,17.70
2023-03-06T23:00:33.829Z,17.67
2023-03-06T23:03:37.080Z,16.63
2023-03-06T23:06:41.137Z,16.40
2023-03-06T23:09:42.769Z,17.50
2023-03-06T23:12:44.418Z,19.30
2023-03-06T23:15:46.035Z,16.70
2023-03-06T23:18:48.193Z,16.33
2023-03-06T23:21:50.045Z,15.87
2023-03-06T23:24:51.663Z,17.27
2023-03-06T23:27:53.235Z,18.60
2023-03-06T23:30:54.906Z,18.17
2023-03-06T23:33:58.355Z,18.43
2023-03-06T23:36:59.976Z,18.93
2023-03-06T23:40:01.659Z,19.00
2023-03-06T23:43:03.940Z,18.43
2023-03-06T23:46:07.024Z,19.40
2023-03-06T23:49:08.729Z,20.37
2023-03-06T23:52:10.283Z,18.50
2023-03-06T23:55:12.376Z,18.40
2023-03-06T23:58:15.585Z,19.40
